sensor_id;sensor_type;location;lat;lon;timestamp;P1;durP1;ratioP1;P2;durP2;ratioP2
22468;SDS011;11401;50.792;4.352;2023-04-27T00:01:56;6.65;;;5.45;;
22468;SDS011;11401;50.792;4.352;2023-04-27T00:04:23;7.25;;;6.38;;
22468;SDS011;11401;50.792;4.352;2023-04-27T00:06:51;7.28;;;5.22;;
22468;SDS011;11401;50.792;4.352;2023-04-27T00:09:18;6.38;;;5.60;;
22468;SDS011;11401;50.792;4.352;2023-04-27T00:11:45;9.80;;;5.82;;
22468;SDS011;11401;50.792;4.352;2023-04-27T00:14:12;7.93;;;5.68;;
22468;SDS011;11401;50.792;4.352;2023-04-27T00:16:39;7.38;;;5.38;;
22468;SDS011;11401;50.792;4.352;2023-04-27T00:19:06;8.27;;;5.53;;
22468;SDS011;11401;50.792;4.352;2023-04-27T00:21:34;8.02;;;5.07;;
22468;SDS011;11401;50.792;4.352;2023-04-27T00:24:01;8.27;;;6.00;;
22468;SDS011;11401;50.792;4.352;2023-04-27T00:26:28;8.55;;;6.40;;
22468;SDS011;11401;50.792;4.352;2023-04-27T00:28:55;5.60;;;5.10;;
22468;SDS011;11401;50.792;4.352;2023-04-27T00:31:23;7.72;;;5.70;;
22468;SDS011;11401;50.792;4.352;2023-04-27T00:33:50;8.63;;;5.57;;
22468;SDS011;11401;50.792;4.352;2023-04-27T00:36:17;6.32;;;4.80;;
22468;SDS011;11401;50.792;4.352;2023-04-27T00:38:46;10.13;;;6.13;;
22468;SDS011;11401;50.792;4.352;2023-04-27T00:41:13;6.75;;;5.63;;
22468;SDS011;11401;50.792;4.352;2023-04-27T00:43:44;11.05;;;5.80;;
22468;SDS011;11401;50.792;4.352;2023-04-27T00:46:12;6.10;;;5.00;;
22468;SDS011;11401;50.792;4.352;2023-04-27T00:48:39;8.90;;;6.10;;
22468;SDS011;11401;50.792;4.352;2023-04-27T00:51:07;8.43;;;5.80;;
22468;SDS011;11401;50.792;4.352;2023-04-27T00:53:35;8.63;;;6.30;;
22468;SDS011;11401;50.792;4.352;2023-04-27T00:56:06;7.15;;;5.00;;
22468;SDS011;11401;50.792;4.352;2023-04-27T00:58:33;9.45;;;5.63;;
22468;SDS011;11401;50.792;4.352;2023-04-27T01:01:00;8.50;;;5.40;;
22468;SDS011;11401;50.792;4.352;2023-04-27T01:03:29;6.75;;;5.70;;
22468;SDS011;11401;50.792;4.352;2023-04-27T01:05:56;7.55;;;5.53;;
22468;SDS011;11401;50.792;4.352;2023-04-27T01:08:28;6.10;;;5.50;;
22468;SDS011;11401;50.792;4.352;2023-04-27T01:10:55;6.85;;;5.28;;
22468;SDS011;11401;50.792;4.352;2023-04-27T01:13:22;9.82;;;5.70;;
22468;SDS011;11401;50.792;4.352;2023-04-27T01:15:49;8.32;;;5.32;;
22468;SDS011;11401;50.792;4.352;2023-04-27T01:18:16;7.57;;;5.85;;
22468;SDS011;11401;50.792;4.352;2023-04-27T01:20:43;6.55;;;5.28;;
22468;SDS011;11401;50.792;4.352;2023-04-27T01:23:14;7.10;;;5.45;;
22468;SDS011;11401;50.792;4.352;2023-04-27T01:25:43;7.32;;;5.70;;
22468;SDS011;11401;50.792;4.352;2023-04-27T01:28:10;6.22;;;5.07;;
22468;SDS011;11401;50.792;4.352;2023-04-27T01:30:38;7.70;;;5.55;;
22468;SDS011;11401;50.792;4.352;2023-04-27T01:33:05;6.32;;;5.28;;
22468;SDS011;11401;50.792;4.352;2023-04-27T01:35:32;10.88;;;5.60;;
22468;SDS011;11401;50.792;4.352;2023-04-27T01:37:59;6.97;;;5.72;;
22468;SDS011;11401;50.792;4.352;2023-04-27T01:40:26;8.07;;;5.47;;
22468;SDS011;11401;50.792;4.352;2023-04-27T01:42:53;8.07;;;5.20;;
22468;SDS011;11401;50.792;4.352;2023-04-27T01:45:21;6.20;;;5.53;;
22468;SDS011;11401;50.792;4.352;2023-04-27T01:47:51;7.47;;;5.90;;
22468;SDS011;11401;50.792;4.352;2023-04-27T01:50:19;6.40;;;5.30;;
22468;SDS011;11401;50.792;4.352;2023-04-27T01:52:46;7.70;;;5.68;;
22468;SDS011;11401;50.792;4.352;2023-04-27T01:55:13;10.00;;;6.22;;
22468;SDS011;11401;50.792;4.352;2023-04-27T01:57:41;8.13;;;5.28;;
22468;SDS011;11401;50.792;4.352;2023-04-27T02:00:10;8.85;;;5.78;;
22468;SDS011;11401;50.792;4.352;2023-04-27T02:02:46;8.30;;;5.68;;
22468;SDS011;11401;50.792;4.352;2023-04-27T02:05:13;9.48;;;5.65;;
22468;SDS011;11401;50.792;4.352;2023-04-27T02:07:40;5.82;;;5.05;;
22468;SDS011;11401;50.792;4.352;2023-04-27T02:10:07;6.28;;;5.65;;
22468;SDS011;11401;50.792;4.352;2023-04-27T02:12:34;7.38;;;5.28;;
22468;SDS011;11401;50.792;4.352;2023-04-27T02:15:02;6.82;;;5.28;;
22468;SDS011;11401;50.792;4.352;2023-04-27T02:17:30;6.75;;;5.70;;
22468;SDS011;11401;50.792;4.352;2023-04-27T02:19:59;6.80;;;5.07;;
22468;SDS011;11401;50.792;4.352;2023-04-27T02:22:26;7.88;;;6.15;;
22468;SDS011;11401;50.792;4.352;2023-04-27T02:24:53;9.18;;;6.40;;
22468;SDS011;11401;50.792;4.352;2023-04-27T02:27:20;6.15;;;5.55;;
22468;SDS011;11401;50.792;4.352;2023-04-27T02:29:48;6.60;;;5.97;;
22468;SDS011;11401;50.792;4.352;2023-04-27T02:32:15;9.23;;;6.07;;
22468;SDS011;11401;50.792;4.352;2023-04-27T02:34:42;9.48;;;5.78;;
22468;SDS011;11401;50.792;4.352;2023-04-27T02:37:09;9.65;;;5.85;;
22468;SDS011;11401;50.792;4.352;2023-04-27T02:39:36;6.95;;;5.80;;
22468;SDS011;11401;50.792;4.352;2023-04-27T02:42:04;8.13;;;5.68;;
22468;SDS011;11401;50.792;4.352;2023-04-27T02:44:31;6.85;;;5.40;;
22468;SDS011;11401;50.792;4.352;2023-04-27T02:46:58;8.10;;;5.47;;
22468;SDS011;11401;50.792;4.352;2023-04-27T02:49:26;10.13;;;5.32;;
22468;SDS011;11401;50.792;4.352;2023-04-27T02:51:53;8.18;;;5.97;;
22468;SDS011;11401;50.792;4.352;2023-04-27T02:54:20;8.50;;;5.75;;
22468;SDS011;11401;50.792;4.352;2023-04-27T02:56:47;7.35;;;5.40;;
22468;SDS011;11401;50.792;4.352;2023-04-27T02:59:14;9.88;;;5.78;;
22468;SDS011;11401;50.792;4.352;2023-04-27T03:01:41;6.72;;;6.13;;
22468;SDS011;11401;50.792;4.352;2023-04-27T03:04:09;7.07;;;5.75;;
22468;SDS011;11401;50.792;4.352;2023-04-27T03:06:36;9.57;;;6.28;;
22468;SDS011;11401;50.792;4.352;2023-04-27T03:09:03;8.30;;;6.57;;
22468;SDS011;11401;50.792;4.352;2023-04-27T03:11:30;10.02;;;6.10;;
22468;SDS011;11401;50.792;4.352;2023-04-27T03:13:58;9.02;;;5.38;;
22468;SDS011;11401;50.792;4.352;2023-04-27T03:16:27;7.82;;;6.65;;
22468;SDS011;11401;50.792;4.352;2023-04-27T03:18:56;7.40;;;6.32;;
22468;SDS011;11401;50.792;4.352;2023-04-27T03:21:24;7.32;;;6.07;;
22468;SDS011;11401;50.792;4.352;2023-04-27T03:23:52;6.90;;;6.18;;
22468;SDS011;11401;50.792;4.352;2023-04-27T03:26:19;9.40;;;6.82;;
22468;SDS011;11401;50.792;4.352;2023-04-27T03:28:46;10.15;;;6.15;;
22468;SDS011;11401;50.792;4.352;2023-04-27T03:31:13;7.38;;;5.70;;
22468;SDS011;11401;50.792;4.352;2023-04-27T03:33:41;10.60;;;6.55;;
22468;SDS011;11401;50.792;4.352;2023-04-27T03:36:08;9.43;;;7.40;;
22468;SDS011;11401;50.792;4.352;2023-04-27T03:38:40;10.55;;;6.05;;
22468;SDS011;11401;50.792;4.352;2023-04-27T03:41:07;13.82;;;6.80;;
22468;SDS011;11401;50.792;4.352;2023-04-27T03:43:34;8.65;;;6.05;;
22468;SDS011;11401;50.792;4.352;2023-04-27T03:46:01;10.10;;;6.70;;
22468;SDS011;11401;50.792;4.352;2023-04-27T03:48:29;6.82;;;6.18;;
22468;SDS011;11401;50.792;4.352;2023-04-27T03:50:56;6.93;;;6.07;;
22468;SDS011;11401;50.792;4.352;2023-04-27T03:53:23;11.77;;;7.28;;
22468;SDS011;11401;50.792;4.352;2023-04-27T03:55:50;10.65;;;7.32;;
22468;SDS011;11401;50.792;4.352;2023-04-27T03:58:17;7.32;;;6.55;;
22468;SDS011;11401;50.792;4.352;2023-04-27T04:01:03;16.30;;;6.78;;
22468;SDS011;11401;50.792;4.352;2023-04-27T04:03:30;7.40;;;6.75;;
22468;SDS011;11401;50.792;4.352;2023-04-27T04:05:57;13.38;;;7.35;;
22468;SDS011;11401;50.792;4.352;2023-04-27T04:08:24;11.35;;;6.43;;
22468;SDS011;11401;50.792;4.352;2023-04-27T04:10:51;12.65;;;6.85;;
22468;SDS011;11401;50.792;4.352;2023-04-27T04:13:18;10.30;;;6.63;;
22468;SDS011;11401;50.792;4.352;2023-04-27T04:15:45;9.18;;;6.40;;
22468;SDS011;11401;50.792;4.352;2023-04-27T04:18:12;12.93;;;7.03;;
22468;SDS011;11401;50.792;4.352;2023-04-27T04:20:39;12.10;;;7.07;;
22468;SDS011;11401;50.792;4.352;2023-04-27T04:23:06;9.13;;;7.07;;
22468;SDS011;11401;50.792;4.352;2023-04-27T04:25:33;9.48;;;7.47;;
22468;SDS011;11401;50.792;4.352;2023-04-27T04:28:00;9.38;;;7.30;;
22468;SDS011;11401;50.792;4.352;2023-04-27T04:30:27;10.80;;;7.07;;
22468;SDS011;11401;50.792;4.352;2023-04-27T04:32:54;9.20;;;6.47;;
22468;SDS011;11401;50.792;4.352;2023-04-27T04:35:22;8.40;;;6.88;;
22468;SDS011;11401;50.792;4.352;2023-04-27T04:37:49;11.25;;;7.18;;
22468;SDS011;11401;50.792;4.352;2023-04-27T04:40:16;14.05;;;8.38;;
22468;SDS011;11401;50.792;4.352;2023-04-27T04:42:44;11.85;;;6.90;;
22468;SDS011;11401;50.792;4.352;2023-04-27T04:45:12;10.02;;;7.95;;
22468;SDS011;11401;50.792;4.352;2023-04-27T04:47:39;11.73;;;6.80;;
22468;SDS011;11401;50.792;4.352;2023-04-27T04:50:07;10.27;;;7.10;;
22468;SDS011;11401;50.792;4.352;2023-04-27T04:52:35;10.90;;;6.68;;
22468;SDS011;11401;50.792;4.352;2023-04-27T04:55:05;12.18;;;7.65;;
22468;SDS011;11401;50.792;4.352;2023-04-27T04:57:32;10.98;;;6.43;;
22468;SDS011;11401;50.792;4.352;2023-04-27T04:59:59;10.95;;;7.35;;
22468;SDS011;11401;50.792;4.352;2023-04-27T05:02:27;8.05;;;7.25;;
22468;SDS011;11401;50.792;4.352;2023-04-27T05:04:54;19.77;;;7.93;;
22468;SDS011;11401;50.792;4.352;2023-04-27T05:07:23;11.57;;;6.88;;
22468;SDS011;11401;50.792;4.352;2023-04-27T05:09:50;11.15;;;7.20;;
22468;SDS011;11401;50.792;4.352;2023-04-27T05:12:17;11.35;;;6.85;;
22468;SDS011;11401;50.792;4.352;2023-04-27T05:14:45;11.20;;;7.18;;
22468;SDS011;11401;50.792;4.352;2023-04-27T05:17:13;10.65;;;7.15;;
22468;SDS011;11401;50.792;4.352;2023-04-27T05:19:40;10.45;;;6.93;;
22468;SDS011;11401;50.792;4.352;2023-04-27T05:22:07;9.65;;;6.93;;
22468;SDS011;11401;50.792;4.352;2023-04-27T05:24:34;11.52;;;7.80;;
22468;SDS011;11401;50.792;4.352;2023-04-27T05:27:01;11.02;;;7.30;;
22468;SDS011;11401;50.792;4.352;2023-04-27T05:29:28;11.10;;;6.78;;
22468;SDS011;11401;50.792;4.352;2023-04-27T05:31:55;8.60;;;6.10;;
22468;SDS011;11401;50.792;4.352;2023-04-27T05:34:23;9.18;;;7.97;;
22468;SDS011;11401;50.792;4.352;2023-04-27T05:36:50;10.38;;;6.80;;
22468;SDS011;11401;50.792;4.352;2023-04-27T05:39:17;14.85;;;8.10;;
22468;SDS011;11401;50.792;4.352;2023-04-27T05:41:44;12.48;;;8.07;;
22468;SDS011;11401;50.792;4.352;2023-04-27T05:44:11;11.60;;;7.43;;
22468;SDS011;11401;50.792;4.352;2023-04-27T05:46:39;10.00;;;7.18;;
22468;SDS011;11401;50.792;4.352;2023-04-27T05:49:06;12.65;;;7.55;;
22468;SDS011;11401;50.792;4.352;2023-04-27T05:51:33;16.17;;;7.60;;
22468;SDS011;11401;50.792;4.352;2023-04-27T05:54:00;12.35;;;7.78;;
22468;SDS011;11401;50.792;4.352;2023-04-27T05:56:27;11.15;;;7.07;;
22468;SDS011;11401;50.792;4.352;2023-04-27T05:58:54;15.27;;;9.45;;
22468;SDS011;11401;50.792;4.352;2023-04-27T06:01:21;15.23;;;9.88;;
22468;SDS011;11401;50.792;4.352;2023-04-27T06:03:49;11.57;;;8.10;;
22468;SDS011;11401;50.792;4.352;2023-04-27T06:06:16;11.35;;;8.43;;
22468;SDS011;11401;50.792;4.352;2023-04-27T06:08:43;20.27;;;9.75;;
22468;SDS011;11401;50.792;4.352;2023-04-27T06:11:10;14.63;;;9.45;;
22468;SDS011;11401;50.792;4.352;2023-04-27T06:13:37;16.80;;;9.18;;
22468;SDS011;11401;50.792;4.352;2023-04-27T06:16:04;12.00;;;9.02;;
22468;SDS011;11401;50.792;4.352;2023-04-27T06:18:31;14.93;;;10.23;;
22468;SDS011;11401;50.792;4.352;2023-04-27T06:20:59;14.80;;;9.48;;
22468;SDS011;11401;50.792;4.352;2023-04-27T06:23:27;15.32;;;9.13;;
22468;SDS011;11401;50.792;4.352;2023-04-27T06:25:54;12.48;;;7.75;;
22468;SDS011;11401;50.792;4.352;2023-04-27T06:28:21;15.13;;;8.77;;
22468;SDS011;11401;50.792;4.352;2023-04-27T06:30:49;20.63;;;8.45;;
22468;SDS011;11401;50.792;4.352;2023-04-27T06:33:16;14.38;;;7.95;;
22468;SDS011;11401;50.792;4.352;2023-04-27T06:35:43;12.93;;;8.15;;
22468;SDS011;11401;50.792;4.352;2023-04-27T06:38:12;12.75;;;8.45;;
22468;SDS011;11401;50.792;4.352;2023-04-27T06:40:40;12.80;;;8.88;;
22468;SDS011;11401;50.792;4.352;2023-04-27T06:43:07;16.45;;;8.95;;
22468;SDS011;11401;50.792;4.352;2023-04-27T06:45:34;18.92;;;8.95;;
22468;SDS011;11401;50.792;4.352;2023-04-27T06:48:01;14.50;;;8.98;;
22468;SDS011;11401;50.792;4.352;2023-04-27T06:50:28;17.73;;;9.55;;
22468;SDS011;11401;50.792;4.352;2023-04-27T06:52:56;15.35;;;8.32;;
22468;SDS011;11401;50.792;4.352;2023-04-27T06:55:23;16.23;;;8.68;;
22468;SDS011;11401;50.792;4.352;2023-04-27T06:57:50;11.40;;;8.68;;
22468;SDS011;11401;50.792;4.352;2023-04-27T07:00:17;14.60;;;9.27;;
22468;SDS011;11401;50.792;4.352;2023-04-27T07:02:45;11.65;;;8.05;;
22468;SDS011;11401;50.792;4.352;2023-04-27T07:05:12;11.70;;;7.78;;
22468;SDS011;11401;50.792;4.352;2023-04-27T07:07:39;13.40;;;10.75;;
22468;SDS011;11401;50.792;4.352;2023-04-27T07:10:06;12.60;;;7.65;;
22468;SDS011;11401;50.792;4.352;2023-04-27T07:12:34;15.60;;;9.40;;
22468;SDS011;11401;50.792;4.352;2023-04-27T07:15:02;11.93;;;9.05;;
22468;SDS011;11401;50.792;4.352;2023-04-27T07:17:32;24.30;;;9.35;;
22468;SDS011;11401;50.792;4.352;2023-04-27T07:20:02;14.68;;;9.13;;
22468;SDS011;11401;50.792;4.352;2023-04-27T07:22:32;15.93;;;9.00;;
22468;SDS011;11401;50.792;4.352;2023-04-27T07:24:59;11.40;;;7.97;;
22468;SDS011;11401;50.792;4.352;2023-04-27T07:27:26;15.50;;;9.25;;
22468;SDS011;11401;50.792;4.352;2023-04-27T07:29:53;18.50;;;9.25;;
22468;SDS011;11401;50.792;4.352;2023-04-27T07:32:20;14.77;;;9.15;;
22468;SDS011;11401;50.792;4.352;2023-04-27T07:34:48;13.85;;;9.30;;
22468;SDS011;11401;50.792;4.352;2023-04-27T07:37:20;14.10;;;9.10;;
22468;SDS011;11401;50.792;4.352;2023-04-27T07:39:48;15.93;;;8.45;;
22468;SDS011;11401;50.792;4.352;2023-04-27T07:42:17;15.38;;;9.07;;
22468;SDS011;11401;50.792;4.352;2023-04-27T07:44:45;11.85;;;8.30;;
22468;SDS011;11401;50.792;4.352;2023-04-27T07:47:12;14.93;;;9.02;;
22468;SDS011;11401;50.792;4.352;2023-04-27T07:49:40;15.10;;;10.15;;
22468;SDS011;11401;50.792;4.352;2023-04-27T07:52:07;10.60;;;8.50;;
22468;SDS011;11401;50.792;4.352;2023-04-27T07:54:34;15.18;;;10.57;;
22468;SDS011;11401;50.792;4.352;2023-04-27T07:57:12;12.80;;;8.90;;
22468;SDS011;11401;50.792;4.352;2023-04-27T07:59:38;11.70;;;8.57;;
22468;SDS011;11401;50.792;4.352;2023-04-27T08:02:06;16.40;;;9.80;;
22468;SDS011;11401;50.792;4.352;2023-04-27T08:04:45;24.73;;;10.13;;
22468;SDS011;11401;50.792;4.352;2023-04-27T08:07:14;15.00;;;8.20;;
22468;SDS011;11401;50.792;4.352;2023-04-27T08:09:43;22.85;;;11.50;;
22468;SDS011;11401;50.792;4.352;2023-04-27T08:12:10;19.67;;;11.30;;
22468;SDS011;11401;50.792;4.352;2023-04-27T08:14:37;14.82;;;9.30;;
22468;SDS011;11401;50.792;4.352;2023-04-27T08:17:04;10.43;;;8.02;;
22468;SDS011;11401;50.792;4.352;2023-04-27T08:19:31;16.83;;;12.23;;
22468;SDS011;11401;50.792;4.352;2023-04-27T08:21:59;16.80;;;10.73;;
22468;SDS011;11401;50.792;4.352;2023-04-27T08:24:26;17.55;;;10.52;;
22468;SDS011;11401;50.792;4.352;2023-04-27T08:26:53;16.50;;;9.57;;
22468;SDS011;11401;50.792;4.352;2023-04-27T08:29:20;21.42;;;11.95;;
22468;SDS011;11401;50.792;4.352;2023-04-27T08:31:56;18.98;;;11.32;;
22468;SDS011;11401;50.792;4.352;2023-04-27T08:34:24;19.05;;;11.52;;
22468;SDS011;11401;50.792;4.352;2023-04-27T08:36:52;15.75;;;10.35;;
22468;SDS011;11401;50.792;4.352;2023-04-27T08:39:19;16.02;;;10.82;;
22468;SDS011;11401;50.792;4.352;2023-04-27T08:41:47;21.63;;;10.95;;
22468;SDS011;11401;50.792;4.352;2023-04-27T08:44:14;22.00;;;9.65;;
22468;SDS011;11401;50.792;4.352;2023-04-27T08:46:41;13.23;;;10.50;;
22468;SDS011;11401;50.792;4.352;2023-04-27T08:49:11;13.20;;;9.63;;
22468;SDS011;11401;50.792;4.352;2023-04-27T08:51:42;19.98;;;11.30;;
22468;SDS011;11401;50.792;4.352;2023-04-27T08:54:09;17.88;;;10.52;;
22468;SDS011;11401;50.792;4.352;2023-04-27T08:56:37;15.02;;;10.45;;
22468;SDS011;11401;50.792;4.352;2023-04-27T08:59:11;15.02;;;8.77;;
22468;SDS011;11401;50.792;4.352;2023-04-27T09:01:44;15.27;;;9.23;;
22468;SDS011;11401;50.792;4.352;2023-04-27T09:04:14;15.15;;;11.63;;
22468;SDS011;11401;50.792;4.352;2023-04-27T09:06:43;13.82;;;9.10;;
22468;SDS011;11401;50.792;4.352;2023-04-27T09:09:20;16.00;;;9.95;;
22468;SDS011;11401;50.792;4.352;2023-04-27T09:11:49;15.65;;;10.02;;
22468;SDS011;11401;50.792;4.352;2023-04-27T09:14:20;12.43;;;9.13;;
22468;SDS011;11401;50.792;4.352;2023-04-27T09:16:54;15.75;;;10.57;;
22468;SDS011;11401;50.792;4.352;2023-04-27T09:19:27;15.63;;;10.40;;
22468;SDS011;11401;50.792;4.352;2023-04-27T09:24:36;17.58;;;10.05;;
22468;SDS011;11401;50.792;4.352;2023-04-27T09:27:05;11.55;;;8.10;;
22468;SDS011;11401;50.792;4.352;2023-04-27T09:29:36;11.82;;;8.93;;
22468;SDS011;11401;50.792;4.352;2023-04-27T09:32:13;13.48;;;9.80;;
22468;SDS011;11401;50.792;4.352;2023-04-27T09:34:46;13.68;;;9.27;;
22468;SDS011;11401;50.792;4.352;2023-04-27T09:37:13;11.77;;;8.68;;
22468;SDS011;11401;50.792;4.352;2023-04-27T09:39:41;6.70;;;6.03;;
22468;SDS011;11401;50.792;4.352;2023-04-27T09:42:08;11.77;;;7.50;;
22468;SDS011;11401;50.792;4.352;2023-04-27T09:44:38;12.25;;;8.20;;
22468;SDS011;11401;50.792;4.352;2023-04-27T09:47:05;16.90;;;9.52;;
22468;SDS011;11401;50.792;4.352;2023-04-27T09:49:33;12.15;;;7.60;;
22468;SDS011;11401;50.792;4.352;2023-04-27T09:52:01;9.45;;;7.90;;
22468;SDS011;11401;50.792;4.352;2023-04-27T09:54:29;13.57;;;7.53;;
22468;SDS011;11401;50.792;4.352;2023-04-27T10:00:03;12.38;;;7.97;;
22468;SDS011;11401;50.792;4.352;2023-04-27T10:02:54;14.88;;;9.73;;
22468;SDS011;11401;50.792;4.352;2023-04-27T10:05:54;11.38;;;8.70;;
22468;SDS011;11401;50.792;4.352;2023-04-27T10:08:28;11.75;;;7.28;;
22468;SDS011;11401;50.792;4.352;2023-04-27T10:10:55;13.15;;;10.00;;
22468;SDS011;11401;50.792;4.352;2023-04-27T10:13:23;16.08;;;9.43;;
22468;SDS011;11401;50.792;4.352;2023-04-27T10:15:51;12.77;;;8.65;;
22468;SDS011;11401;50.792;4.352;2023-04-27T10:18:25;14.63;;;7.93;;
22468;SDS011;11401;50.792;4.352;2023-04-27T10:20:54;11.95;;;8.75;;
22468;SDS011;11401;50.792;4.352;2023-04-27T10:23:23;13.10;;;8.00;;
22468;SDS011;11401;50.792;4.352;2023-04-27T10:25:52;12.45;;;8.18;;
22468;SDS011;11401;50.792;4.352;2023-04-27T10:28:19;11.20;;;9.10;;
22468;SDS011;11401;50.792;4.352;2023-04-27T10:30:47;14.60;;;8.85;;
22468;SDS011;11401;50.792;4.352;2023-04-27T10:33:15;12.20;;;8.35;;
22468;SDS011;11401;50.792;4.352;2023-04-27T10:35:55;10.38;;;7.57;;
22468;SDS011;11401;50.792;4.352;2023-04-27T10:38:27;10.18;;;6.90;;
22468;SDS011;11401;50.792;4.352;2023-04-27T10:40:57;7.07;;;6.28;;
22468;SDS011;11401;50.792;4.352;2023-04-27T10:43:28;11.40;;;8.60;;
22468;SDS011;11401;50.792;4.352;2023-04-27T10:46:10;10.88;;;6.53;;
22468;SDS011;11401;50.792;4.352;2023-04-27T10:48:41;16.33;;;7.65;;
22468;SDS011;11401;50.792;4.352;2023-04-27T10:51:09;13.70;;;9.43;;
22468;SDS011;11401;50.792;4.352;2023-04-27T10:53:41;8.90;;;6.57;;
22468;SDS011;11401;50.792;4.352;2023-04-27T10:56:08;15.85;;;7.32;;
22468;SDS011;11401;50.792;4.352;2023-04-27T10:58:36;11.75;;;6.70;;
22468;SDS011;11401;50.792;4.352;2023-04-27T11:01:07;10.68;;;7.20;;
22468;SDS011;11401;50.792;4.352;2023-04-27T11:03:34;12.13;;;8.63;;
22468;SDS011;11401;50.792;4.352;2023-04-27T11:06:03;13.68;;;9.23;;
22468;SDS011;11401;50.792;4.352;2023-04-27T11:08:31;12.80;;;9.05;;
22468;SDS011;11401;50.792;4.352;2023-04-27T11:10:59;18.90;;;9.27;;
22468;SDS011;11401;50.792;4.352;2023-04-27T11:13:27;13.40;;;8.90;;
22468;SDS011;11401;50.792;4.352;2023-04-27T11:15:55;14.65;;;8.35;;
22468;SDS011;11401;50.792;4.352;2023-04-27T11:18:26;71.35;;;13.77;;
22468;SDS011;11401;50.792;4.352;2023-04-27T11:21:07;15.13;;;9.13;;
22468;SDS011;11401;50.792;4.352;2023-04-27T11:23:38;13.98;;;8.27;;
22468;SDS011;11401;50.792;4.352;2023-04-27T11:28:44;12.38;;;9.80;;
22468;SDS011;11401;50.792;4.352;2023-04-27T11:31:43;14.85;;;8.55;;
22468;SDS011;11401;50.792;4.352;2023-04-27T11:34:18;13.55;;;8.45;;
22468;SDS011;11401;50.792;4.352;2023-04-27T11:37:01;17.02;;;9.63;;
22468;SDS011;11401;50.792;4.352;2023-04-27T11:39:44;13.73;;;8.75;;
22468;SDS011;11401;50.792;4.352;2023-04-27T11:42:22;12.38;;;8.88;;
22468;SDS011;11401;50.792;4.352;2023-04-27T11:44:57;11.10;;;6.55;;
22468;SDS011;11401;50.792;4.352;2023-04-27T11:47:26;12.82;;;9.18;;
22468;SDS011;11401;50.792;4.352;2023-04-27T11:49:55;12.38;;;8.80;;
22468;SDS011;11401;50.792;4.352;2023-04-27T11:52:33;12.73;;;8.82;;
22468;SDS011;11401;50.792;4.352;2023-04-27T11:55:02;11.80;;;8.52;;
22468;SDS011;11401;50.792;4.352;2023-04-27T11:57:31;16.15;;;8.80;;
22468;SDS011;11401;50.792;4.352;2023-04-27T11:59:59;14.23;;;8.13;;
22468;SDS011;11401;50.792;4.352;2023-04-27T12:02:38;11.82;;;8.70;;
22468;SDS011;11401;50.792;4.352;2023-04-27T12:05:07;15.98;;;9.32;;
22468;SDS011;11401;50.792;4.352;2023-04-27T12:07:35;15.15;;;9.23;;
22468;SDS011;11401;50.792;4.352;2023-04-27T12:10:02;13.75;;;9.18;;
22468;SDS011;11401;50.792;4.352;2023-04-27T12:12:30;13.68;;;8.52;;
22468;SDS011;11401;50.792;4.352;2023-04-27T12:14:58;13.45;;;8.73;;
22468;SDS011;11401;50.792;4.352;2023-04-27T12:17:25;15.75;;;8.93;;
22468;SDS011;11401;50.792;4.352;2023-04-27T12:19:53;13.43;;;8.85;;
22468;SDS011;11401;50.792;4.352;2023-04-27T12:22:20;13.32;;;8.80;;
22468;SDS011;11401;50.792;4.352;2023-04-27T12:24:47;18.95;;;8.85;;
22468;SDS011;11401;50.792;4.352;2023-04-27T12:27:14;19.52;;;9.48;;
22468;SDS011;11401;50.792;4.352;2023-04-27T12:29:42;13.52;;;8.45;;
22468;SDS011;11401;50.792;4.352;2023-04-27T12:32:09;10.73;;;7.85;;
22468;SDS011;11401;50.792;4.352;2023-04-27T12:34:36;13.23;;;9.05;;
22468;SDS011;11401;50.792;4.352;2023-04-27T12:37:04;12.95;;;9.23;;
22468;SDS011;11401;50.792;4.352;2023-04-27T12:39:32;15.35;;;9.15;;
22468;SDS011;11401;50.792;4.352;2023-04-27T12:41:59;28.65;;;11.60;;
22468;SDS011;11401;50.792;4.352;2023-04-27T12:44:27;16.98;;;10.27;;
22468;SDS011;11401;50.792;4.352;2023-04-27T12:46:58;19.52;;;9.05;;
22468;SDS011;11401;50.792;4.352;2023-04-27T12:49:25;14.18;;;8.75;;
22468;SDS011;11401;50.792;4.352;2023-04-27T12:51:52;11.70;;;9.40;;
22468;SDS011;11401;50.792;4.352;2023-04-27T12:54:22;13.82;;;9.50;;
22468;SDS011;11401;50.792;4.352;2023-04-27T12:56:49;15.07;;;8.77;;
22468;SDS011;11401;50.792;4.352;2023-04-27T12:59:16;13.00;;;8.98;;
22468;SDS011;11401;50.792;4.352;2023-04-27T13:01:43;12.70;;;8.18;;
22468;SDS011;11401;50.792;4.352;2023-04-27T13:04:16;12.98;;;7.85;;
22468;SDS011;11401;50.792;4.352;2023-04-27T13:06:46;15.68;;;9.32;;
22468;SDS011;11401;50.792;4.352;2023-04-27T13:09:14;13.52;;;8.77;;
22468;SDS011;11401;50.792;4.352;2023-04-27T13:11:42;13.60;;;8.93;;
22468;SDS011;11401;50.792;4.352;2023-04-27T13:14:09;13.80;;;9.18;;
22468;SDS011;11401;50.792;4.352;2023-04-27T13:16:39;12.25;;;8.35;;
22468;SDS011;11401;50.792;4.352;2023-04-27T13:19:07;17.67;;;8.98;;
22468;SDS011;11401;50.792;4.352;2023-04-27T13:21:34;16.27;;;8.40;;
22468;SDS011;11401;50.792;4.352;2023-04-27T13:24:02;12.55;;;8.38;;
22468;SDS011;11401;50.792;4.352;2023-04-27T13:26:29;13.07;;;8.35;;
22468;SDS011;11401;50.792;4.352;2023-04-27T13:28:56;9.40;;;7.50;;
22468;SDS011;11401;50.792;4.352;2023-04-27T13:31:23;16.50;;;9.38;;
22468;SDS011;11401;50.792;4.352;2023-04-27T13:33:51;13.40;;;8.63;;
22468;SDS011;11401;50.792;4.352;2023-04-27T13:36:19;9.38;;;7.18;;
22468;SDS011;11401;50.792;4.352;2023-04-27T13:38:46;12.27;;;8.57;;
22468;SDS011;11401;50.792;4.352;2023-04-27T13:41:13;11.40;;;7.35;;
22468;SDS011;11401;50.792;4.352;2023-04-27T13:43:40;11.85;;;6.93;;
22468;SDS011;11401;50.792;4.352;2023-04-27T13:46:07;13.48;;;7.30;;
22468;SDS011;11401;50.792;4.352;2023-04-27T13:48:35;12.70;;;8.73;;
22468;SDS011;11401;50.792;4.352;2023-04-27T13:51:02;12.80;;;8.65;;
22468;SDS011;11401;50.792;4.352;2023-04-27T13:53:29;12.60;;;9.02;;
22468;SDS011;11401;50.792;4.352;2023-04-27T13:55:56;17.88;;;9.00;;
22468;SDS011;11401;50.792;4.352;2023-04-27T13:58:26;14.10;;;10.07;;
22468;SDS011;11401;50.792;4.352;2023-04-27T14:00:54;13.35;;;9.00;;
22468;SDS011;11401;50.792;4.352;2023-04-27T14:03:21;17.20;;;8.30;;
22468;SDS011;11401;50.792;4.352;2023-04-27T14:05:49;14.88;;;9.02;;
22468;SDS011;11401;50.792;4.352;2023-04-27T14:08:17;13.07;;;8.68;;
22468;SDS011;11401;50.792;4.352;2023-04-27T14:10:44;17.15;;;9.15;;
22468;SDS011;11401;50.792;4.352;2023-04-27T14:13:11;9.88;;;7.88;;
22468;SDS011;11401;50.792;4.352;2023-04-27T14:15:39;13.30;;;9.30;;
22468;SDS011;11401;50.792;4.352;2023-04-27T14:18:07;16.58;;;9.25;;
22468;SDS011;11401;50.792;4.352;2023-04-27T14:20:35;15.90;;;9.82;;
22468;SDS011;11401;50.792;4.352;2023-04-27T14:23:03;9.52;;;7.63;;
22468;SDS011;11401;50.792;4.352;2023-04-27T14:25:32;15.77;;;9.50;;
22468;SDS011;11401;50.792;4.352;2023-04-27T14:28:00;13.50;;;9.13;;
22468;SDS011;11401;50.792;4.352;2023-04-27T14:30:32;13.63;;;8.98;;
22468;SDS011;11401;50.792;4.352;2023-04-27T14:33:00;14.90;;;8.68;;
22468;SDS011;11401;50.792;4.352;2023-04-27T14:35:28;11.35;;;8.48;;
22468;SDS011;11401;50.792;4.352;2023-04-27T14:37:55;14.82;;;8.43;;
22468;SDS011;11401;50.792;4.352;2023-04-27T14:40:28;11.93;;;8.05;;
22468;SDS011;11401;50.792;4.352;2023-04-27T14:42:56;16.27;;;8.88;;
22468;SDS011;11401;50.792;4.352;2023-04-27T14:45:26;18.50;;;10.35;;
22468;SDS011;11401;50.792;4.352;2023-04-27T14:48:09;16.77;;;9.38;;
22468;SDS011;11401;50.792;4.352;2023-04-27T14:50:39;15.48;;;9.98;;
22468;SDS011;11401;50.792;4.352;2023-04-27T14:53:06;14.80;;;9.20;;
22468;SDS011;11401;50.792;4.352;2023-04-27T14:55:33;15.27;;;9.85;;